sensor_id;sensor_type;location;lat;lon;timestamp;pressure;altitude;pressure_sealevel;temperature;humidity
48390;BME280;34643;47.964;7.982;2023-12-28T00:01:05;96912.97;;;14.13;61.89
48390;BME280;34643;47.964;7.982;2023-12-28T00:03:30;96925.00;;;14.14;61.88
48390;BME280;34643;47.964;7.982;2023-12-28T00:05:55;96927.66;;;14.12;62.16
48390;BME280;34643;47.964;7.982;2023-12-28T00:08:20;96929.34;;;14.13;61.75
48390;BME280;34643;47.964;7.982;2023-12-28T00:10:46;96930.28;;;14.12;62.03
48390;BME280;34643;47.964;7.982;2023-12-28T00:13:11;96924.34;;;14.10;61.85
48390;BME280;34643;47.964;7.982;2023-12-28T00:15:36;96924.34;;;14.10;62.19
48390;BME280;34643;47.964;7.982;2023-12-28T00:18:02;96921.75;;;14.10;62.00
48390;BME280;34643;47.964;7.982;2023-12-28T00:20:27;96926.03;;;14.11;61.82
48390;BME280;34643;47.964;7.982;2023-12-28T00:22:52;96926.03;;;14.11;62.00
48390;BME280;34643;47.964;7.982;2023-12-28T00:25:18;96927.88;;;14.09;62.04
48390;BME280;34643;47.964;7.982;2023-12-28T00:27:43;96938.25;;;14.09;62.21
48390;BME280;34643;47.964;7.982;2023-12-28T00:30:10;96926.19;;;14.08;61.77
48390;BME280;34643;47.964;7.982;2023-12-28T00:32:36;96919.16;;;14.10;62.11
48390;BME280;34643;47.964;7.982;2023-12-28T00:35:01;96907.94;;;14.10;61.99
48390;BME280;34643;47.964;7.982;2023-12-28T00:37:26;96912.31;;;14.09;61.64
48390;BME280;34643;47.964;7.982;2023-12-28T00:39:51;96932.22;;;14.08;62.12
48390;BME280;34643;47.964;7.982;2023-12-28T00:42:17;96921.81;;;14.08;62.01
48390;BME280;34643;47.964;7.982;2023-12-28T00:44:44;96927.88;;;14.09;61.90
48390;BME280;34643;47.964;7.982;2023-12-28T00:47:09;96941.75;;;14.08;61.93
48390;BME280;34643;47.964;7.982;2023-12-28T00:49:36;96943.44;;;14.09;62.05
48390;BME280;34643;47.964;7.982;2023-12-28T00:52:01;96940.13;;;14.07;62.04
48390;BME280;34643;47.964;7.982;2023-12-28T00:54:27;96925.38;;;14.07;62.14
48390;BME280;34643;47.964;7.982;2023-12-28T00:56:52;96923.59;;;14.08;61.96
48390;BME280;34643;47.964;7.982;2023-12-28T00:59:17;96917.59;;;14.07;62.21
48390;BME280;34643;47.964;7.982;2023-12-28T01:01:44;96919.34;;;14.07;61.90
48390;BME280;34643;47.964;7.982;2023-12-28T01:04:09;96920.19;;;14.07;61.91
48390;BME280;34643;47.964;7.982;2023-12-28T01:06:34;96934.91;;;14.07;62.39
48390;BME280;34643;47.964;7.982;2023-12-28T01:09:00;96928.88;;;14.06;61.86
48390;BME280;34643;47.964;7.982;2023-12-28T01:11:25;96940.94;;;14.07;62.01
48390;BME280;34643;47.964;7.982;2023-12-28T01:13:53;96936.66;;;14.06;62.16
48390;BME280;34643;47.964;7.982;2023-12-28T01:16:19;96954.81;;;14.06;61.98
48390;BME280;34643;47.964;7.982;2023-12-28T01:18:44;96969.56;;;14.06;61.82
48390;BME280;34643;47.964;7.982;2023-12-28T01:21:10;96987.75;;;14.06;62.15
48390;BME280;34643;47.964;7.982;2023-12-28T01:23:35;96966.97;;;14.06;61.98
48390;BME280;34643;47.964;7.982;2023-12-28T01:26:01;96980.78;;;14.06;61.98
48390;BME280;34643;47.964;7.982;2023-12-28T01:28:26;96966.16;;;14.05;62.13
48390;BME280;34643;47.964;7.982;2023-12-28T01:30:52;96978.28;;;14.05;62.19
48390;BME280;34643;47.964;7.982;2023-12-28T01:33:18;96985.16;;;14.06;62.16
48390;BME280;34643;47.964;7.982;2023-12-28T01:35:43;96974.03;;;14.04;61.94
48390;BME280;34643;47.964;7.982;2023-12-28T01:38:08;96982.63;;;14.04;62.16
48390;BME280;34643;47.964;7.982;2023-12-28T01:40:35;96993.84;;;14.05;62.15
48390;BME280;34643;47.964;7.982;2023-12-28T01:43:00;97008.59;;;14.04;62.09
48390;BME280;34643;47.964;7.982;2023-12-28T01:45:26;96983.47;;;14.05;62.16
48390;BME280;34643;47.964;7.982;2023-12-28T01:47:52;96987.00;;;14.04;62.08
48390;BME280;34643;47.964;7.982;2023-12-28T01:50:18;96996.44;;;14.05;61.88
48390;BME280;34643;47.964;7.982;2023-12-28T01:52:45;96995.69;;;14.03;62.26
48390;BME280;34643;47.964;7.982;2023-12-28T01:55:10;97003.41;;;14.04;62.01
48390;BME280;34643;47.964;7.982;2023-12-28T01:57:36;97028.53;;;14.04;61.85
48390;BME280;34643;47.964;7.982;2023-12-28T02:00:01;97023.44;;;14.02;61.89
48390;BME280;34643;47.964;7.982;2023-12-28T02:02:38;97023.34;;;14.04;62.14
48390;BME280;34643;47.964;7.982;2023-12-28T02:05:03;97024.25;;;14.03;62.16
48390;BME280;34643;47.964;7.982;2023-12-28T02:07:29;97016.47;;;14.03;61.95
48390;BME280;34643;47.964;7.982;2023-12-28T02:09:54;97043.28;;;14.03;62.13
48390;BME280;34643;47.964;7.982;2023-12-28T02:12:20;97016.47;;;14.03;61.97
48390;BME280;34643;47.964;7.982;2023-12-28T02:14:46;97042.41;;;14.03;62.11
48390;BME280;34643;47.964;7.982;2023-12-28T02:19:50;97026.84;;;14.03;62.09
48390;BME280;34643;47.964;7.982;2023-12-28T02:22:16;97020.81;;;14.02;62.10
48390;BME280;34643;47.964;7.982;2023-12-28T02:27:25;97047.59;;;14.03;61.83
48390;BME280;34643;47.964;7.982;2023-12-28T02:29:51;97068.38;;;14.03;62.20
48390;BME280;34643;47.964;7.982;2023-12-28T02:32:16;97057.16;;;14.02;61.91
48390;BME280;34643;47.964;7.982;2023-12-28T02:34:44;97056.34;;;14.02;61.99
48390;BME280;34643;47.964;7.982;2023-12-28T02:37:11;97063.25;;;14.01;62.07
48390;BME280;34643;47.964;7.982;2023-12-28T02:39:37;97071.06;;;14.01;61.97
48390;BME280;34643;47.964;7.982;2023-12-28T02:42:04;97048.63;;;14.00;61.90
48390;BME280;34643;47.964;7.982;2023-12-28T02:44:29;97065.03;;;14.01;62.04
48390;BME280;34643;47.964;7.982;2023-12-28T02:46:55;97075.41;;;14.01;62.04
48390;BME280;34643;47.964;7.982;2023-12-28T02:49:20;97063.25;;;14.01;61.82
48390;BME280;34643;47.964;7.982;2023-12-28T02:51:45;97070.22;;;14.01;62.12
48390;BME280;34643;47.964;7.982;2023-12-28T02:54:11;97065.03;;;14.01;62.16
48390;BME280;34643;47.964;7.982;2023-12-28T02:56:39;97080.59;;;14.01;62.00
48390;BME280;34643;47.964;7.982;2023-12-28T02:59:04;97065.94;;;14.00;62.09
48390;BME280;34643;47.964;7.982;2023-12-28T03:01:29;97074.66;;;13.99;61.97
48390;BME280;34643;47.964;7.982;2023-12-28T03:03:55;97083.28;;;13.99;61.98
48390;BME280;34643;47.964;7.982;2023-12-28T03:06:21;97072.91;;;13.99;62.10
48390;BME280;34643;47.964;7.982;2023-12-28T03:08:46;97072.06;;;13.99;62.14
48390;BME280;34643;47.964;7.982;2023-12-28T03:11:12;97069.47;;;13.99;61.96
48390;BME280;34643;47.964;7.982;2023-12-28T03:13:37;97062.59;;;13.98;62.08
48390;BME280;34643;47.964;7.982;2023-12-28T03:16:02;97079.84;;;13.99;61.97
48390;BME280;34643;47.964;7.982;2023-12-28T03:18:28;97067.78;;;13.98;62.11
48390;BME280;34643;47.964;7.982;2023-12-28T03:20:53;97072.97;;;13.98;62.19
48390;BME280;34643;47.964;7.982;2023-12-28T03:23:18;97087.66;;;13.99;61.98
48390;BME280;34643;47.964;7.982;2023-12-28T03:25:43;97060.19;;;13.95;62.02
48390;BME280;34643;47.964;7.982;2023-12-28T03:28:09;97065.19;;;13.98;62.17
48390;BME280;34643;47.964;7.982;2023-12-28T03:30:34;97073.06;;;13.96;62.11
48390;BME280;34643;47.964;7.982;2023-12-28T03:32:59;97061.78;;;13.97;61.96
48390;BME280;34643;47.964;7.982;2023-12-28T03:35:25;97060.94;;;13.97;61.97
48390;BME280;34643;47.964;7.982;2023-12-28T03:37:50;97067.88;;;13.96;61.89
48390;BME280;34643;47.964;7.982;2023-12-28T03:40:15;97060.94;;;13.97;62.20
48390;BME280;34643;47.964;7.982;2023-12-28T03:42:40;97059.34;;;13.94;62.01
48390;BME280;34643;47.964;7.982;2023-12-28T03:45:06;97064.38;;;13.97;62.11
48390;BME280;34643;47.964;7.982;2023-12-28T03:47:31;97063.53;;;13.97;61.91
48390;BME280;34643;47.964;7.982;2023-12-28T03:49:57;97046.38;;;13.94;62.03
48390;BME280;34643;47.964;7.982;2023-12-28T03:52:22;97051.56;;;13.94;62.35
48390;BME280;34643;47.964;7.982;2023-12-28T03:54:49;97038.56;;;13.94;62.18
48390;BME280;34643;47.964;7.982;2023-12-28T03:57:14;97029.97;;;13.94;62.22
48390;BME280;34643;47.964;7.982;2023-12-28T03:59:40;97025.59;;;13.94;62.26
48390;BME280;34643;47.964;7.982;2023-12-28T04:02:05;97037.75;;;13.94;62.12
48390;BME280;34643;47.964;7.982;2023-12-28T04:04:31;97032.56;;;13.94;61.98
48390;BME280;34643;47.964;7.982;2023-12-28T04:06:57;97029.97;;;13.94;62.13
48390;BME280;34643;47.964;7.982;2023-12-28T04:09:23;97032.66;;;13.92;62.11
48390;BME280;34643;47.964;7.982;2023-12-28T04:11:48;97029.13;;;13.93;62.18
48390;BME280;34643;47.964;7.982;2023-12-28T04:14:14;97030.88;;;13.93;62.13
48390;BME280;34643;47.964;7.982;2023-12-28T04:16:39;97015.31;;;13.93;62.32
48390;BME280;34643;47.964;7.982;2023-12-28T04:19:04;97017.91;;;13.93;62.05
48390;BME280;34643;47.964;7.982;2023-12-28T04:21:30;97015.31;;;13.93;62.28
48390;BME280;34643;47.964;7.982;2023-12-28T04:23:55;97016.16;;;13.93;62.12
48390;BME280;34643;47.964;7.982;2023-12-28T04:26:20;97010.13;;;13.93;62.27
48390;BME280;34643;47.964;7.982;2023-12-28T04:28:46;97006.69;;;13.92;62.20
48390;BME280;34643;47.964;7.982;2023-12-28T04:31:11;97008.38;;;13.93;62.14
48390;BME280;34643;47.964;7.982;2023-12-28T04:33:36;96996.31;;;13.92;62.04
48390;BME280;34643;47.964;7.982;2023-12-28T04:36:02;96992.81;;;13.93;62.00
48390;BME280;34643;47.964;7.982;2023-12-28T04:38:29;96992.91;;;13.92;61.96
48390;BME280;34643;47.964;7.982;2023-12-28T04:40:55;96983.34;;;13.92;62.25
48390;BME280;34643;47.964;7.982;2023-12-28T04:43:21;96991.13;;;13.92;62.25
48390;BME280;34643;47.964;7.982;2023-12-28T04:45:48;96977.31;;;13.92;61.90
48390;BME280;34643;47.964;7.982;2023-12-28T04:48:14;96971.19;;;13.93;62.13
48390;BME280;34643;47.964;7.982;2023-12-28T04:50:39;96974.72;;;13.92;61.94
48390;BME280;34643;47.964;7.982;2023-12-28T04:53:05;96973.78;;;13.93;62.09
48390;BME280;34643;47.964;7.982;2023-12-28T04:55:30;96967.78;;;13.92;62.21
48390;BME280;34643;47.964;7.982;2023-12-28T04:57:56;96969.53;;;13.92;62.07
48390;BME280;34643;47.964;7.982;2023-12-28T05:00:21;96979.91;;;13.92;62.05
48390;BME280;34643;47.964;7.982;2023-12-28T05:02:48;96979.91;;;13.92;62.16
48390;BME280;34643;47.964;7.982;2023-12-28T05:05:13;96981.56;;;13.93;62.28
48390;BME280;34643;47.964;7.982;2023-12-28T05:07:40;96983.41;;;13.91;61.99
48390;BME280;34643;47.964;7.982;2023-12-28T05:10:05;96984.28;;;13.91;62.14
48390;BME280;34643;47.964;7.982;2023-12-28T05:12:32;96986.88;;;13.91;62.08
48390;BME280;34643;47.964;7.982;2023-12-28T05:14:57;96996.41;;;13.91;62.33
48390;BME280;34643;47.964;7.982;2023-12-28T05:17:22;96990.28;;;13.92;62.41
48390;BME280;34643;47.964;7.982;2023-12-28T05:19:47;96998.09;;;13.92;62.13
48390;BME280;34643;47.964;7.982;2023-12-28T05:22:13;96992.91;;;13.92;62.23
48390;BME280;34643;47.964;7.982;2023-12-28T05:24:38;97004.09;;;13.92;61.92
48390;BME280;34643;47.964;7.982;2023-12-28T05:27:03;97002.34;;;13.93;62.19
48390;BME280;34643;47.964;7.982;2023-12-28T05:29:29;96997.25;;;13.91;62.26
48390;BME280;34643;47.964;7.982;2023-12-28T05:31:54;97002.53;;;13.90;62.01
48390;BME280;34643;47.964;7.982;2023-12-28T05:34:19;97003.28;;;13.92;62.13
48390;BME280;34643;47.964;7.982;2023-12-28T05:36:45;97019.75;;;13.91;62.10
48390;BME280;34643;47.964;7.982;2023-12-28T05:39:13;97011.97;;;13.91;62.09
48390;BME280;34643;47.964;7.982;2023-12-28T05:41:39;97019.84;;;13.89;62.17
48390;BME280;34643;47.964;7.982;2023-12-28T05:44:05;97023.22;;;13.91;62.34
48390;BME280;34643;47.964;7.982;2023-12-28T05:46:30;97029.31;;;13.90;62.37
48390;BME280;34643;47.964;7.982;2023-12-28T05:48:55;97028.47;;;13.90;62.14
48390;BME280;34643;47.964;7.982;2023-12-28T05:51:20;97028.47;;;13.90;62.51
48390;BME280;34643;47.964;7.982;2023-12-28T05:53:46;97015.59;;;13.88;62.44
48390;BME280;34643;47.964;7.982;2023-12-28T05:56:11;97007.72;;;13.90;62.39
48390;BME280;34643;47.964;7.982;2023-12-28T05:58:37;97023.38;;;13.88;62.18
48390;BME280;34643;47.964;7.982;2023-12-28T06:01:03;97006.84;;;13.89;62.15
48390;BME280;34643;47.964;7.982;2023-12-28T06:03:30;97000.84;;;13.88;62.40
48390;BME280;34643;47.964;7.982;2023-12-28T06:05:55;97013.00;;;13.88;62.40
48390;BME280;34643;47.964;7.982;2023-12-28T06:08:21;97015.59;;;13.88;62.27
48390;BME280;34643;47.964;7.982;2023-12-28T06:10:46;97019.00;;;13.88;62.20
48390;BME280;34643;47.964;7.982;2023-12-28T06:13:11;97018.19;;;13.88;62.12
48390;BME280;34643;47.964;7.982;2023-12-28T06:15:37;97013.06;;;13.86;62.39
48390;BME280;34643;47.964;7.982;2023-12-28T06:18:02;97021.69;;;13.87;62.25
48390;BME280;34643;47.964;7.982;2023-12-28T06:20:29;97025.13;;;13.87;62.36
48390;BME280;34643;47.964;7.982;2023-12-28T06:22:54;97020.84;;;13.86;62.06
48390;BME280;34643;47.964;7.982;2023-12-28T06:25:20;97013.97;;;13.85;62.04
48390;BME280;34643;47.964;7.982;2023-12-28T06:27:45;97031.25;;;13.86;62.26
48390;BME280;34643;47.964;7.982;2023-12-28T06:30:10;97019.16;;;13.85;62.41
48390;BME280;34643;47.964;7.982;2023-12-28T06:32:36;97019.16;;;13.85;62.47
48390;BME280;34643;47.964;7.982;2023-12-28T06:35:01;97020.84;;;13.86;62.27
48390;BME280;34643;47.964;7.982;2023-12-28T06:37:27;97011.38;;;13.85;61.95
48390;BME280;34643;47.964;7.982;2023-12-28T06:39:52;97007.13;;;13.84;61.99
48390;BME280;34643;47.964;7.982;2023-12-28T06:42:17;97011.38;;;13.85;62.23
48390;BME280;34643;47.964;7.982;2023-12-28T06:44:42;97020.94;;;13.85;62.03
48390;BME280;34643;47.964;7.982;2023-12-28T06:47:08;97022.72;;;13.84;62.20
48390;BME280;34643;47.964;7.982;2023-12-28T06:49:33;97015.00;;;13.83;62.01
48390;BME280;34643;47.964;7.982;2023-12-28T06:51:58;97008.91;;;13.84;62.22
48390;BME280;34643;47.964;7.982;2023-12-28T06:54:24;96998.59;;;13.82;62.23
48390;BME280;34643;47.964;7.982;2023-12-28T06:56:49;96991.56;;;13.84;61.85
48390;BME280;34643;47.964;7.982;2023-12-28T06:59:16;97001.94;;;13.84;62.17
48390;BME280;34643;47.964;7.982;2023-12-28T07:01:41;97007.13;;;13.84;61.85
48390;BME280;34643;47.964;7.982;2023-12-28T07:04:07;97001.13;;;13.84;61.96
48390;BME280;34643;47.964;7.982;2023-12-28T07:06:32;97003.72;;;13.84;62.22
48390;BME280;34643;47.964;7.982;2023-12-28T07:08:57;96998.59;;;13.82;61.98
48390;BME280;34643;47.964;7.982;2023-12-28T07:11:22;97008.03;;;13.83;61.85
48390;BME280;34643;47.964;7.982;2023-12-28T07:13:48;96993.41;;;13.82;62.11
48390;BME280;34643;47.964;7.982;2023-12-28T07:16:13;96998.59;;;13.82;62.05
48390;BME280;34643;47.964;7.982;2023-12-28T07:18:39;97000.25;;;13.83;61.86
48390;BME280;34643;47.964;7.982;2023-12-28T07:21:04;96994.25;;;13.83;61.92
48390;BME280;34643;47.964;7.982;2023-12-28T07:23:31;97009.81;;;13.83;61.99
48390;BME280;34643;47.964;7.982;2023-12-28T07:25:56;97014.19;;;13.82;62.10
48390;BME280;34643;47.964;7.982;2023-12-28T07:28:22;96997.66;;;13.83;61.74
48390;BME280;34643;47.964;7.982;2023-12-28T07:30:47;97004.63;;;13.83;61.97
48390;BME280;34643;47.964;7.982;2023-12-28T07:33:12;97014.19;;;13.82;61.82
48390;BME280;34643;47.964;7.982;2023-12-28T07:35:38;97020.19;;;13.83;61.81
48390;BME280;34643;47.964;7.982;2023-12-28T07:38:04;97022.78;;;13.83;61.86
48390;BME280;34643;47.964;7.982;2023-12-28T07:40:29;97021.97;;;13.82;61.85
48390;BME280;34643;47.964;7.982;2023-12-28T07:42:54;97031.41;;;13.83;62.02
48390;BME280;34643;47.964;7.982;2023-12-28T07:45:21;97021.97;;;13.82;61.58
48390;BME280;34643;47.964;7.982;2023-12-28T07:47:48;97028.88;;;13.82;61.95
48390;BME280;34643;47.964;7.982;2023-12-28T07:50:13;97031.47;;;13.82;62.14
48390;BME280;34643;47.964;7.982;2023-12-28T07:52:41;97042.72;;;13.82;61.83
48390;BME280;34643;47.964;7.982;2023-12-28T07:55:06;97044.38;;;13.83;61.94
48390;BME280;34643;47.964;7.982;2023-12-28T07:57:31;97043.63;;;13.81;61.79
48390;BME280;34643;47.964;7.982;2023-12-28T07:59:57;97033.34;;;13.80;62.00
48390;BME280;34643;47.964;7.982;2023-12-28T08:02:22;97046.22;;;13.81;61.80
48390;BME280;34643;47.964;7.982;2023-12-28T08:04:47;97055.78;;;13.81;61.79
48390;BME280;34643;47.964;7.982;2023-12-28T08:07:13;97061.78;;;13.81;62.00
48390;BME280;34643;47.964;7.982;2023-12-28T08:09:39;97054.94;;;13.80;62.10
48390;BME280;34643;47.964;7.982;2023-12-28T08:12:04;97058.44;;;13.79;61.92
48390;BME280;34643;47.964;7.982;2023-12-28T08:14:30;97066.22;;;13.79;61.93
48390;BME280;34643;47.964;7.982;2023-12-28T08:16:56;97073.09;;;13.80;61.86
48390;BME280;34643;47.964;7.982;2023-12-28T08:19:21;97073.09;;;13.80;62.08
48390;BME280;34643;47.964;7.982;2023-12-28T08:21:47;97067.91;;;13.80;61.83
48390;BME280;34643;47.964;7.982;2023-12-28T08:24:12;97072.16;;;13.81;61.77
48390;BME280;34643;47.964;7.982;2023-12-28T08:26:37;97066.22;;;13.79;61.87
48390;BME280;34643;47.964;7.982;2023-12-28T08:29:02;97080.03;;;13.80;61.72
48390;BME280;34643;47.964;7.982;2023-12-28T08:31:28;97095.59;;;13.80;62.07
48390;BME280;34643;47.964;7.982;2023-12-28T08:33:54;97089.59;;;13.79;61.82
48390;BME280;34643;47.964;7.982;2023-12-28T08:36:20;97078.28;;;13.80;62.01
48390;BME280;34643;47.964;7.982;2023-12-28T08:38:45;97083.47;;;13.80;61.88
48390;BME280;34643;47.964;7.982;2023-12-28T08:41:17;97075.78;;;13.79;61.64
48390;BME280;34643;47.964;7.982;2023-12-28T08:43:43;97080.09;;;13.78;61.77
48390;BME280;34643;47.964;7.982;2023-12-28T08:46:08;97080.97;;;13.79;61.94
48390;BME280;34643;47.964;7.982;2023-12-28T08:48:33;97084.38;;;13.79;61.82
48390;BME280;34643;47.964;7.982;2023-12-28T08:50:59;97069.66;;;13.80;61.70
48390;BME280;34643;47.964;7.982;2023-12-28T08:53:24;97076.59;;;13.79;62.01
48390;BME280;34643;47.964;7.982;2023-12-28T08:55:49;97059.34;;;13.78;61.88
48390;BME280;34643;47.964;7.982;2023-12-28T08:58:14;97068.91;;;13.78;61.70
48390;BME280;34643;47.964;7.982;2023-12-28T09:00:40;97086.16;;;13.79;61.78
48390;BME280;34643;47.964;7.982;2023-12-28T09:03:05;97087.91;;;13.78;61.82
48390;BME280;34643;47.964;7.982;2023-12-28T09:05:30;97086.25;;;13.77;62.02
48390;BME280;34643;47.964;7.982;2023-12-28T09:07:56;97084.47;;;13.78;61.48
48390;BME280;34643;47.964;7.982;2023-12-28T09:10:21;97089.66;;;13.78;61.67
48390;BME280;34643;47.964;7.982;2023-12-28T09:12:46;97084.47;;;13.78;61.65
48390;BME280;34643;47.964;7.982;2023-12-28T09:15:12;97099.22;;;13.77;61.71
48390;BME280;34643;47.964;7.982;2023-12-28T09:17:37;97105.22;;;13.78;61.90
48390;BME280;34643;47.964;7.982;2023-12-28T09:20:02;97107.75;;;13.79;61.60
48390;BME280;34643;47.964;7.982;2023-12-28T09:22:28;97100.03;;;13.78;61.48
48390;BME280;34643;47.964;7.982;2023-12-28T09:24:54;97107.91;;;13.76;61.90
48390;BME280;34643;47.964;7.982;2023-12-28T09:27:19;97104.41;;;13.77;61.63
48390;BME280;34643;47.964;7.982;2023-12-28T09:29:45;97101.81;;;13.77;61.89
48390;BME280;34643;47.964;7.982;2023-12-28T09:32:11;97104.41;;;13.77;61.98
48390;BME280;34643;47.964;7.982;2023-12-28T09:34:36;97107.00;;;13.77;61.78
48390;BME280;34643;47.964;7.982;2023-12-28T09:37:02;97100.88;;;13.78;61.78
48390;BME280;34643;47.964;7.982;2023-12-28T09:39:27;97101.72;;;13.79;61.68
48390;BME280;34643;47.964;7.982;2023-12-28T09:41:58;97105.22;;;13.78;61.81
48390;BME280;34643;47.964;7.982;2023-12-28T09:44:24;97108.66;;;13.78;61.69
48390;BME280;34643;47.964;7.982;2023-12-28T09:46:50;97110.41;;;13.78;61.48
48390;BME280;34643;47.964;7.982;2023-12-28T09:49:18;97122.56;;;13.77;61.74
48390;BME280;34643;47.964;7.982;2023-12-28T09:51:45;97122.56;;;13.77;61.74
48390;BME280;34643;47.964;7.982;2023-12-28T09:54:11;97107.81;;;13.78;61.56
48390;BME280;34643;47.964;7.982;2023-12-28T09:56:36;97099.22;;;13.77;61.79
48390;BME280;34643;47.964;7.982;2023-12-28T09:59:02;97099.22;;;13.77;61.51
48390;BME280;34643;47.964;7.982;2023-12-28T10:01:27;97100.13;;;13.76;61.58
48390;BME280;34643;47.964;7.982;2023-12-28T10:03:53;97094.03;;;13.77;61.70
48390;BME280;34643;47.964;7.982;2023-12-28T10:06:19;97093.94;;;13.79;61.82
48390;BME280;34643;47.964;7.982;2023-12-28T10:08:47;97098.28;;;13.78;61.65
48390;BME280;34643;47.964;7.982;2023-12-28T10:11:14;97093.09;;;13.78;61.77
48390;BME280;34643;47.964;7.982;2023-12-28T10:13:39;97099.13;;;13.79;61.46
48390;BME280;34643;47.964;7.982;2023-12-28T10:16:07;97096.63;;;13.77;61.52
48390;BME280;34643;47.964;7.982;2023-12-28T10:18:32;97093.09;;;13.78;61.61
48390;BME280;34643;47.964;7.982;2023-12-28T10:20:58;97097.44;;;13.78;61.86
48390;BME280;34643;47.964;7.982;2023-12-28T10:23:23;97094.94;;;13.76;61.76
48390;BME280;34643;47.964;7.982;2023-12-28T10:25:49;97082.78;;;13.77;61.44
48390;BME280;34643;47.964;7.982;2023-12-28T10:28:18;97084.38;;;13.79;61.76
48390;BME280;34643;47.964;7.982;2023-12-28T10:30:45;97082.53;;;13.81;61.38
48390;BME280;34643;47.964;7.982;2023-12-28T10:33:10;97088.56;;;13.82;61.57
48390;BME280;34643;47.964;7.982;2023-12-28T10:35:36;97093.66;;;13.83;61.54
48390;BME280;34643;47.964;7.982;2023-12-28T10:38:01;97090.16;;;13.84;61.26
48390;BME280;34643;47.964;7.982;2023-12-28T10:40:29;97086.63;;;13.85;61.38
48390;BME280;34643;47.964;7.982;2023-12-28T10:43:06;97089.81;;;13.91;61.17
48390;BME280;34643;47.964;7.982;2023-12-28T10:45:34;97099.38;;;13.90;61.38
48390;BME280;34643;47.964;7.982;2023-12-28T10:50:26;97099.94;;;13.95;61.41
48390;BME280;34643;47.964;7.982;2023-12-28T10:52:53;97092.00;;;13.98;61.12
48390;BME280;34643;47.964;7.982;2023-12-28T10:55:34;97091.81;;;14.01;61.08
48390;BME280;34643;47.964;7.982;2023-12-28T11:00:33;97075.34;;;14.02;61.10
48390;BME280;34643;47.964;7.982;2023-12-28T11:03:02;97074.50;;;14.02;61.11
48390;BME280;34643;47.964;7.982;2023-12-28T11:05:28;97063.19;;;14.03;61.14
48390;BME280;34643;47.964;7.982;2023-12-28T11:07:55;97064.03;;;14.03;61.03
48390;BME280;34643;47.964;7.982;2023-12-28T11:10:23;97067.38;;;14.05;61.00
48390;BME280;34643;47.964;7.982;2023-12-28T11:12:49;97072.56;;;14.05;61.35
48390;BME280;34643;47.964;7.982;2023-12-28T11:15:16;97078.59;;;14.06;61.34
48390;BME280;34643;47.964;7.982;2023-12-28T11:17:42;97078.50;;;14.07;61.29
48390;BME280;34643;47.964;7.982;2023-12-28T11:20:08;97075.09;;;14.07;61.18
48390;BME280;34643;47.964;7.982;2023-12-28T11:22:35;97073.22;;;14.09;61.20
48390;BME280;34643;47.964;7.982;2023-12-28T11:25:00;97071.38;;;14.11;61.25
48390;BME280;34643;47.964;7.982;2023-12-28T11:27:33;97061.00;;;14.11;61.33
48390;BME280;34643;47.964;7.982;2023-12-28T11:29:58;97052.19;;;14.14;61.28
48390;BME280;34643;47.964;7.982;2023-12-28T11:32:23;97045.72;;;14.21;60.89
48390;BME280;34643;47.964;7.982;2023-12-28T11:34:58;97041.28;;;14.23;61.06
48390;BME280;34643;47.964;7.982;2023-12-28T11:37:23;97039.25;;;14.28;61.10
48390;BME280;34643;47.964;7.982;2023-12-28T11:39:51;97043.44;;;14.31;60.95
48390;BME280;34643;47.964;7.982;2023-12-28T11:42:19;97037.31;;;14.32;60.87
48390;BME280;34643;47.964;7.982;2023-12-28T11:44:45;97047.53;;;14.35;61.06
48390;BME280;34643;47.964;7.982;2023-12-28T11:47:12;97037.88;;;14.37;60.91
48390;BME280;34643;47.964;7.982;2023-12-28T11:49:38;97043.81;;;14.39;61.04
48390;BME280;34643;47.964;7.982;2023-12-28T11:52:05;97042.81;;;14.41;61.13
48390;BME280;34643;47.964;7.982;2023-12-28T11:54:30;97043.56;;;14.43;61.07
48390;BME280;34643;47.964;7.982;2023-12-28T11:56:55;97037.53;;;14.43;60.89
48390;BME280;34643;47.964;7.982;2023-12-28T11:59:21;97040.88;;;14.45;61.07
48390;BME280;34643;47.964;7.982;2023-12-28T12:01:52;97052.00;;;14.47;61.05
48390;BME280;34643;47.964;7.982;2023-12-28T12:04:21;97042.38;;;14.49;61.11
48390;BME280;34643;47.964;7.982;2023-12-28T12:06:47;97041.47;;;14.50;60.87
48390;BME280;34643;47.964;7.982;2023-12-28T12:09:13;97035.53;;;14.48;61.13
48390;BME280;34643;47.964;7.982;2023-12-28T12:11:39;97031.81;;;14.52;61.12
48390;BME280;34643;47.964;7.982;2023-12-28T12:14:08;97048.13;;;14.54;61.15
48390;BME280;34643;47.964;7.982;2023-12-28T12:16:34;97046.28;;;14.56;61.16
48390;BME280;34643;47.964;7.982;2023-12-28T12:19:00;97053.25;;;14.56;60.94
48390;BME280;34643;47.964;7.982;2023-12-28T12:21:25;97057.53;;;14.57;61.15
48390;BME280;34643;47.964;7.982;2023-12-28T12:23:50;97054.94;;;14.57;60.92
48390;BME280;34643;47.964;7.982;2023-12-28T12:26:17;97050.50;;;14.59;61.19
48390;BME280;34643;47.964;7.982;2023-12-28T12:28:42;97060.03;;;14.58;61.24
48390;BME280;34643;47.964;7.982;2023-12-28T12:31:08;97060.03;;;14.58;61.18
48390;BME280;34643;47.964;7.982;2023-12-28T12:33:34;97048.66;;;14.61;60.88
48390;BME280;34643;47.964;7.982;2023-12-28T12:35:59;97063.22;;;14.63;61.21
48390;BME280;34643;47.964;7.982;2023-12-28T12:38:25;97058.00;;;14.63;60.99
48390;BME280;34643;47.964;7.982;2023-12-28T12:40:51;97057.00;;;14.66;61.11
48390;BME280;34643;47.964;7.982;2023-12-28T12:43:16;97057.84;;;14.67;61.12
48390;BME280;34643;47.964;7.982;2023-12-28T12:45:44;97041.34;;;14.68;61.08
48390;BME280;34643;47.964;7.982;2023-12-28T12:48:09;97013.50;;;14.70;61.13
48390;BME280;34643;47.964;7.982;2023-12-28T12:50:36;97009.94;;;14.71;61.17
48390;BME280;34643;47.964;7.982;2023-12-28T12:53:01;97001.97;;;14.74;60.86
48390;BME280;34643;47.964;7.982;2023-12-28T12:55:29;96998.47;;;14.75;61.14
48390;BME280;34643;47.964;7.982;2023-12-28T12:57:54;96996.63;;;14.77;61.02
48390;BME280;34643;47.964;7.982;2023-12-28T13:00:21;96993.06;;;14.78;60.93
48390;BME280;34643;47.964;7.982;2023-12-28T13:02:48;96989.47;;;14.80;61.19